Watersmeet, Michigan
Current Conditions -  °F | °C
As of 10:55 AM on Monday 22 Dec 2014 (Local Time) from KLNL Reporting Station
Haze Haze  
Wind Chill: 26°   Ceiling: 400
Heat Index: 32°   Visibility: 2mi
Dew Point: 32°   Wind: 7mph
Humidity: 99%   Direction: 150°SSE
Pressure: 29.8"   Gusts: NA
Location:  46.27°N, 89.18°W
Report Text: KLNL 221655Z AUTO 15006KT 2SM BR OVC004 00/00 A2980 RMK AO2 T00020000
Loading
Personal Weather Stations






























Interactive Weather Map New forecast layout! Learn more

10-Day Weather Forecast

Advertisements
Track Severe Weather on mobile